createdAt,value
2022-09-30T00:01:39.717Z,37.42
2022-09-30T00:05:02.833Z,35.15
2022-09-30T00:08:25.946Z,33.75
2022-09-30T00:11:49.090Z,32.47
2022-09-30T00:15:13.068Z,40.70
2022-09-30T00:18:37.712Z,29.65
2022-09-30T00:22:00.739Z,36.58
2022-09-30T00:25:23.776Z,29.65
2022-09-30T00:28:50.109Z,34.88
2022-09-30T00:32:13.270Z,32.60
2022-09-30T00:35:38.143Z,23.70
2022-09-30T00:39:01.166Z,30.77
2022-09-30T00:42:29.939Z,36.88
2022-09-30T00:45:55.858Z,30.80
2022-09-30T00:49:21.696Z,34.17
2022-09-30T00:52:51.279Z,38.67
2022-09-30T00:56:18.410Z,36.50
2022-09-30T00:59:47.051Z,38.55
2022-09-30T01:03:10.129Z,34.53
2022-09-30T01:06:33.272Z,27.27
2022-09-30T01:09:59.012Z,32.17
2022-09-30T01:13:27.342Z,28.58
2022-09-30T01:17:00.177Z,22.05
2022-09-30T01:20:53.821Z,25.15
2022-09-30T01:24:48.890Z,26.27
2022-09-30T01:28:58.285Z,30.10
2022-09-30T01:32:34.902Z,25.08
2022-09-30T01:36:10.865Z,20.65
2022-09-30T01:39:42.910Z,25.10
2022-09-30T01:43:09.789Z,27.30
2022-09-30T01:46:37.539Z,21.92
2022-09-30T01:50:06.812Z,21.52
2022-09-30T01:53:40.788Z,22.20
2022-09-30T01:57:10.695Z,24.75
2022-09-30T02:00:37.631Z,31.73
2022-09-30T02:04:06.237Z,26.10
2022-09-30T02:07:36.408Z,23.85
2022-09-30T02:11:04.021Z,18.08
2022-09-30T02:14:30.137Z,36.85
2022-09-30T02:17:58.223Z,31.20
2022-09-30T02:21:25.553Z,25.00
2022-09-30T02:24:54.419Z,24.00
2022-09-30T02:28:21.840Z,23.77
2022-09-30T02:31:47.888Z,26.70
2022-09-30T02:35:15.200Z,21.10
2022-09-30T02:38:42.328Z,22.15
2022-09-30T02:42:20.347Z,23.48
2022-09-30T02:45:50.580Z,23.50
2022-09-30T02:49:20.886Z,22.08
2022-09-30T02:52:56.648Z,24.30
2022-09-30T02:56:25.380Z,26.15
2022-09-30T02:59:52.627Z,24.90
2022-09-30T03:03:20.311Z,31.73
2022-09-30T03:06:43.734Z,20.50
2022-09-30T03:10:13.932Z,21.05
2022-09-30T03:14:01.324Z,22.73
2022-09-30T03:17:59.196Z,16.88
2022-09-30T03:21:41.326Z,19.75
2022-09-30T03:25:16.613Z,19.80
2022-09-30T03:28:45.384Z,26.83
2022-09-30T03:32:19.675Z,17.50
2022-09-30T03:35:53.860Z,20.15
2022-09-30T03:39:25.268Z,19.20
2022-09-30T03:42:54.010Z,22.00
2022-09-30T03:46:22.719Z,19.13
2022-09-30T03:49:50.497Z,15.65
2022-09-30T03:53:14.892Z,18.80
2022-09-30T03:56:42.974Z,17.48
2022-09-30T04:00:07.477Z,18.42
2022-09-30T04:03:30.367Z,21.17
2022-09-30T04:06:53.253Z,18.65
2022-09-30T04:10:17.464Z,24.20
2022-09-30T04:13:40.533Z,15.65
2022-09-30T04:17:04.446Z,19.55
2022-09-30T04:20:27.660Z,20.92
2022-09-30T04:23:51.804Z,20.58
2022-09-30T04:27:16.031Z,16.88
2022-09-30T04:30:39.088Z,22.15
2022-09-30T04:34:02.285Z,17.42
2022-09-30T04:37:25.287Z,18.13
2022-09-30T04:40:49.452Z,21.13
2022-09-30T04:44:13.714Z,26.83
2022-09-30T04:47:36.751Z,26.33
2022-09-30T04:51:01.071Z,25.17
2022-09-30T04:54:24.245Z,23.85
2022-09-30T04:57:47.382Z,25.02
2022-09-30T05:01:13.497Z,26.05
2022-09-30T05:04:36.433Z,27.67
2022-09-30T05:08:02.187Z,18.00
2022-09-30T05:11:25.788Z,19.83
2022-09-30T05:14:48.937Z,29.10
2022-09-30T05:18:13.919Z,18.02
2022-09-30T05:21:37.162Z,24.95
2022-09-30T05:25:00.102Z,24.75
2022-09-30T05:28:23.138Z,25.17
2022-09-30T05:31:46.109Z,25.52
2022-09-30T05:35:12.023Z,31.42
2022-09-30T05:38:35.280Z,22.52
2022-09-30T05:41:58.701Z,26.98
2022-09-30T05:45:21.605Z,24.10
2022-09-30T05:48:44.726Z,22.48
2022-09-30T05:52:09.383Z,24.20
2022-09-30T05:55:35.814Z,19.55
2022-09-30T05:59:02.398Z,38.15
2022-09-30T06:02:25.543Z,28.50
2022-09-30T06:05:48.650Z,36.78
2022-09-30T06:09:12.922Z,31.83
2022-09-30T06:12:37.094Z,35.72
2022-09-30T06:16:01.727Z,24.77
2022-09-30T06:19:24.792Z,24.90
2022-09-30T06:22:47.718Z,22.42
2022-09-30T06:26:13.333Z,24.67
2022-09-30T06:29:36.667Z,23.33
2022-09-30T06:33:01.388Z,45.22
2022-09-30T06:36:24.811Z,33.97
2022-09-30T06:39:47.708Z,20.17
2022-09-30T06:43:12.784Z,24.10
2022-09-30T06:46:41.241Z,29.45
2022-09-30T06:50:14.561Z,26.60
2022-09-30T06:53:43.692Z,26.48
2022-09-30T06:57:06.706Z,32.08
2022-09-30T07:00:31.031Z,26.38
2022-09-30T07:03:57.960Z,24.05
2022-09-30T07:07:22.189Z,21.52
2022-09-30T07:10:47.721Z,27.85
2022-09-30T07:14:13.301Z,18.45
2022-09-30T07:17:37.531Z,20.55
2022-09-30T07:21:00.372Z,28.10
2022-09-30T07:24:23.246Z,22.00
2022-09-30T07:27:46.732Z,20.60
2022-09-30T07:31:31.986Z,27.83
2022-09-30T07:34:56.509Z,24.60
2022-09-30T07:38:20.948Z,19.38
2022-09-30T07:41:45.075Z,16.30
2022-09-30T07:45:08.746Z,18.20
2022-09-30T07:48:44.629Z,19.52
2022-09-30T07:52:10.745Z,24.45
2022-09-30T07:55:34.838Z,19.88
2022-09-30T07:59:00.157Z,27.02
2022-09-30T08:02:24.525Z,20.42
2022-09-30T08:05:48.523Z,17.40
2022-09-30T08:09:13.438Z,14.18
2022-09-30T08:12:38.333Z,21.83
2022-09-30T08:16:01.608Z,27.02
2022-09-30T08:19:25.952Z,17.23
2022-09-30T08:22:48.904Z,21.23
2022-09-30T08:26:15.334Z,24.40
2022-09-30T08:29:55.832Z,20.63
2022-09-30T08:33:20.466Z,17.92
2022-09-30T08:36:43.483Z,18.45
2022-09-30T08:40:07.782Z,22.58
2022-09-30T08:43:41.139Z,17.52
2022-09-30T08:47:10.214Z,20.00
2022-09-30T08:50:43.005Z,14.20
2022-09-30T08:54:12.434Z,27.13
2022-09-30T08:57:38.255Z,24.30
2022-09-30T09:01:11.662Z,23.17
2022-09-30T09:04:34.644Z,21.45
2022-09-30T09:08:04.902Z,26.52
2022-09-30T09:11:45.016Z,20.45
2022-09-30T09:15:32.220Z,15.95
2022-09-30T09:19:01.967Z,20.58
2022-09-30T09:22:26.802Z,17.30
2022-09-30T09:25:52.998Z,17.23
2022-09-30T09:29:39.193Z,45.80
2022-09-30T09:33:11.841Z,25.83
2022-09-30T09:36:47.046Z,42.90
2022-09-30T09:40:18.162Z,29.85
2022-09-30T09:43:52.413Z,56.88
2022-09-30T09:47:16.995Z,55.88
2022-09-30T09:50:50.625Z,45.38
2022-09-30T09:54:18.910Z,44.20
2022-09-30T09:57:41.795Z,34.70
2022-09-30T10:01:32.830Z,38.33
2022-09-30T10:05:01.488Z,35.10
2022-09-30T10:08:24.782Z,33.60
2022-09-30T10:11:49.129Z,40.25
2022-09-30T10:15:24.458Z,34.63
2022-09-30T10:18:47.469Z,43.28
2022-09-30T10:22:21.428Z,36.80
2022-09-30T10:26:00.549Z,28.65
2022-09-30T10:29:31.565Z,30.63
2022-09-30T10:32:54.570Z,18.23
2022-09-30T10:36:19.646Z,26.40
2022-09-30T10:39:44.610Z,30.30
2022-09-30T10:43:18.454Z,26.65
2022-09-30T10:46:44.726Z,24.40
2022-09-30T10:50:12.086Z,25.40
2022-09-30T10:53:36.701Z,22.67
2022-09-30T10:57:04.301Z,25.13
2022-09-30T11:00:27.812Z,19.33
2022-09-30T11:03:59.269Z,22.98
2022-09-30T11:07:28.421Z,19.75
2022-09-30T11:10:59.075Z,21.05
2022-09-30T11:14:32.045Z,23.88
2022-09-30T11:18:00.533Z,19.98
2022-09-30T11:21:30.595Z,22.23
2022-09-30T11:24:55.450Z,16.75
2022-09-30T11:28:40.804Z,19.02
2022-09-30T11:32:12.958Z,19.00
2022-09-30T11:35:47.787Z,19.50
2022-09-30T11:39:43.135Z,21.27
2022-09-30T11:43:15.464Z,12.90
2022-09-30T11:47:03.354Z,16.17
2022-09-30T11:50:51.237Z,15.90
2022-09-30T11:54:30.333Z,21.17
2022-09-30T11:58:41.094Z,16.08
2022-09-30T12:02:20.018Z,20.38
2022-09-30T12:05:46.922Z,21.20
2022-09-30T12:09:17.756Z,14.30
2022-09-30T12:12:42.830Z,22.83
2022-09-30T12:16:11.971Z,14.57
2022-09-30T12:19:41.013Z,24.17
2022-09-30T12:23:15.482Z,15.35
2022-09-30T12:26:40.940Z,15.63
2022-09-30T12:30:18.404Z,21.80
2022-09-30T12:33:56.905Z,23.17
2022-09-30T12:37:34.738Z,27.08
2022-09-30T12:41:16.542Z,16.02
2022-09-30T12:44:55.953Z,18.60
2022-09-30T12:48:22.319Z,20.63
2022-09-30T12:51:49.861Z,21.98
2022-09-30T12:55:25.347Z,21.23
2022-09-30T12:58:52.710Z,17.95
2022-09-30T13:02:31.655Z,25.13
2022-09-30T13:05:57.731Z,25.63
2022-09-30T13:09:22.358Z,22.27
2022-09-30T13:12:46.734Z,14.55
2022-09-30T13:16:10.867Z,19.17
2022-09-30T13:19:36.442Z,22.63
2022-09-30T13:23:00.798Z,25.77
2022-09-30T13:26:48.497Z,19.73
2022-09-30T13:30:42.920Z,20.40
2022-09-30T13:34:12.237Z,25.30
2022-09-30T13:37:40.799Z,15.80
2022-09-30T13:41:16.161Z,25.83
2022-09-30T13:44:48.102Z,27.58
2022-09-30T13:48:15.747Z,16.98
2022-09-30T13:51:41.644Z,27.27
2022-09-30T13:55:10.542Z,28.10
2022-09-30T13:58:55.427Z,27.50
2022-09-30T14:02:47.831Z,35.80
2022-09-30T14:06:23.069Z,31.90
2022-09-30T14:10:03.439Z,45.88
2022-09-30T14:13:48.109Z,91.22
2022-09-30T14:17:30.010Z,124.13
2022-09-30T14:21:06.117Z,78.18
2022-09-30T14:24:36.549Z,61.90
2022-09-30T14:28:08.783Z,71.68
2022-09-30T14:31:33.849Z,73.13
2022-09-30T14:34:58.521Z,60.00
2022-09-30T14:38:25.107Z,76.40
2022-09-30T14:41:52.043Z,86.07
2022-09-30T14:45:21.809Z,58.58
2022-09-30T14:48:50.582Z,50.08
2022-09-30T14:52:36.653Z,64.82
2022-09-30T14:56:00.476Z,58.72
2022-09-30T14:59:27.037Z,57.30
2022-09-30T15:02:50.045Z,59.47
2022-09-30T15:06:21.204Z,53.38
2022-09-30T15:09:46.234Z,64.90
2022-09-30T15:13:10.957Z,54.75
2022-09-30T15:16:34.892Z,65.80
2022-09-30T15:19:59.612Z,49.60
2022-09-30T15:23:26.977Z,44.03
2022-09-30T15:26:50.673Z,45.97
2022-09-30T15:30:26.330Z,42.83
2022-09-30T15:33:49.357Z,51.80
2022-09-30T15:37:23.503Z,41.20
2022-09-30T15:40:59.696Z,33.10
2022-09-30T15:44:40.276Z,36.63
2022-09-30T15:48:06.804Z,48.38
2022-09-30T15:51:39.493Z,39.17
2022-09-30T15:55:04.076Z,45.20
2022-09-30T15:58:43.679Z,47.20
2022-09-30T16:02:11.628Z,35.22
2022-09-30T16:05:37.738Z,30.55
2022-09-30T16:09:03.604Z,35.38
2022-09-30T16:12:31.177Z,37.67
2022-09-30T16:15:57.632Z,41.33
2022-09-30T16:19:21.582Z,38.08
2022-09-30T16:22:54.916Z,30.65
2022-09-30T16:26:24.492Z,36.05
2022-09-30T16:29:47.480Z,28.13
2022-09-30T16:33:15.269Z,31.17
2022-09-30T16:36:38.238Z,39.35
2022-09-30T16:40:10.319Z,32.83
2022-09-30T16:43:34.412Z,31.92
2022-09-30T16:46:57.300Z,34.58
2022-09-30T16:50:26.369Z,45.05
2022-09-30T16:53:49.231Z,30.63
2022-09-30T16:57:15.258Z,28.08
2022-09-30T17:00:41.263Z,34.60
2022-09-30T17:04:04.361Z,35.85
2022-09-30T17:07:28.610Z,38.78
2022-09-30T17:10:51.561Z,31.98
2022-09-30T17:14:15.573Z,30.98
2022-09-30T17:17:38.478Z,30.58
2022-09-30T17:21:01.354Z,28.33
2022-09-30T17:24:25.611Z,30.45
2022-09-30T17:27:50.086Z,31.58
2022-09-30T17:31:13.445Z,24.00
2022-09-30T17:34:36.410Z,23.90
2022-09-30T17:38:00.195Z,28.35
2022-09-30T17:41:41.027Z,32.60
2022-09-30T17:45:04.004Z,40.22
2022-09-30T17:48:26.989Z,32.72
2022-09-30T17:51:49.961Z,26.98
2022-09-30T17:55:12.907Z,20.00
2022-09-30T17:58:37.539Z,30.05
2022-09-30T18:02:00.530Z,21.58
2022-09-30T18:05:25.550Z,22.00
2022-09-30T18:08:49.595Z,24.25
2022-09-30T18:12:12.645Z,29.48
2022-09-30T18:15:39.145Z,31.40
2022-09-30T18:19:04.194Z,32.42
2022-09-30T18:22:27.368Z,33.22
2022-09-30T18:25:51.942Z,35.08
2022-09-30T18:29:14.803Z,36.58
2022-09-30T18:32:39.527Z,30.33
2022-09-30T18:36:03.043Z,33.45
2022-09-30T18:39:26.023Z,29.38
2022-09-30T18:42:49.521Z,29.83
2022-09-30T18:46:13.776Z,24.17
2022-09-30T18:49:38.084Z,25.95
2022-09-30T18:53:06.809Z,25.20
2022-09-30T18:56:32.871Z,29.85
2022-09-30T18:59:56.088Z,26.08
2022-09-30T19:03:19.065Z,24.55
2022-09-30T19:06:47.465Z,26.13
2022-09-30T19:10:12.473Z,25.45
2022-09-30T19:13:35.374Z,29.83
2022-09-30T19:16:58.348Z,28.50
2022-09-30T19:20:21.485Z,23.83
2022-09-30T19:23:45.930Z,27.05
2022-09-30T19:27:09.806Z,30.92
2022-09-30T19:30:33.445Z,24.95
2022-09-30T19:33:57.166Z,28.73
2022-09-30T19:37:27.236Z,27.55
2022-09-30T19:40:57.116Z,28.63
2022-09-30T19:44:20.098Z,28.77
2022-09-30T19:47:43.106Z,24.20
2022-09-30T19:51:08.550Z,27.88
2022-09-30T19:54:40.154Z,25.77
2022-09-30T19:58:07.006Z,26.90
2022-09-30T20:01:31.378Z,22.55
2022-09-30T20:04:54.833Z,20.83
2022-09-30T20:08:19.028Z,21.75
2022-09-30T20:11:42.183Z,28.08
2022-09-30T20:15:24.712Z,27.02
2022-09-30T20:18:47.614Z,23.83
2022-09-30T20:22:11.366Z,31.08
2022-09-30T20:25:35.541Z,27.42
2022-09-30T20:28:58.853Z,32.10
2022-09-30T20:32:23.138Z,28.95
2022-09-30T20:35:46.113Z,28.00
2022-09-30T20:39:09.247Z,29.08
2022-09-30T20:42:32.660Z,30.13
2022-09-30T20:46:00.194Z,24.52
2022-09-30T20:49:24.559Z,29.75
2022-09-30T20:52:47.449Z,35.88
2022-09-30T20:56:12.807Z,27.52
2022-09-30T20:59:36.072Z,22.13
2022-09-30T21:02:59.045Z,28.35
2022-09-30T21:06:26.713Z,36.17
2022-09-30T21:09:49.831Z,24.42
2022-09-30T21:13:13.408Z,25.08
2022-09-30T21:16:36.368Z,20.35
2022-09-30T21:19:59.614Z,30.98
2022-09-30T21:23:24.208Z,26.02
2022-09-30T21:26:47.110Z,28.23
2022-09-30T21:30:11.484Z,27.30
2022-09-30T21:33:34.615Z,30.27
2022-09-30T21:36:57.552Z,31.02
2022-09-30T21:40:21.821Z,26.13
2022-09-30T21:43:45.096Z,22.10
2022-09-30T21:47:08.079Z,23.38
2022-09-30T21:50:32.119Z,33.83
2022-09-30T21:53:55.045Z,23.98
2022-09-30T21:57:19.409Z,27.95
2022-09-30T22:00:43.610Z,30.85
2022-09-30T22:04:08.211Z,29.30
2022-09-30T22:07:32.949Z,20.33
2022-09-30T22:10:55.881Z,30.00
2022-09-30T22:14:20.307Z,25.35
2022-09-30T22:17:43.177Z,21.92
2022-09-30T22:21:08.253Z,20.10
2022-09-30T22:24:31.834Z,27.90
2022-09-30T22:27:54.770Z,20.63
2022-09-30T22:31:20.897Z,24.05
2022-09-30T22:35:01.326Z,27.50
2022-09-30T22:38:24.599Z,22.88
2022-09-30T22:41:47.557Z,20.55
2022-09-30T22:45:10.777Z,18.90
2022-09-30T22:48:35.621Z,15.68
2022-09-30T22:51:59.189Z,24.23
2022-09-30T22:55:22.348Z,20.55
2022-09-30T22:58:46.748Z,23.10
2022-09-30T23:02:09.674Z,18.40
2022-09-30T23:05:36.485Z,17.98
2022-09-30T23:08:59.386Z,22.42
2022-09-30T23:12:22.400Z,22.98
2022-09-30T23:15:45.329Z,25.48
2022-09-30T23:19:08.198Z,18.88
2022-09-30T23:22:32.487Z,25.75
2022-09-30T23:26:00.935Z,24.15
2022-09-30T23:29:24.767Z,19.20
2022-09-30T23:32:47.685Z,24.20
2022-09-30T23:36:11.773Z,24.90
2022-09-30T23:39:36.038Z,22.27
2022-09-30T23:42:58.928Z,17.92
2022-09-30T23:46:21.844Z,14.65
2022-09-30T23:49:45.896Z,11.50
2022-09-30T23:53:08.762Z,17.55
2022-09-30T23:56:33.062Z,18.00
2022-09-30T23:59:55.977Z,21.00
